createdAt,value
2018-08-17T07:55:27.800Z,9320.00
2018-08-17T07:56:27.813Z,8992.00
2018-08-17T07:58:20.900Z,8904.00
2018-08-17T07:59:20.862Z,10116.00
2018-08-17T08:01:14.187Z,7144.00
2018-08-17T08:02:14.158Z,8900.00
2018-08-17T08:04:07.014Z,7612.00
2018-08-17T08:05:06.957Z,7104.00
2018-08-17T08:07:00.012Z,9916.00
2018-08-17T08:07:59.998Z,8104.00
2018-08-17T08:09:52.832Z,7332.00
2018-08-17T08:10:52.806Z,10784.00
2018-08-17T08:12:45.840Z,8648.00
2018-08-17T08:13:45.846Z,11172.00
2018-08-17T08:15:39.015Z,13780.00
2018-08-17T08:16:38.906Z,14068.00
2018-08-17T08:18:32.235Z,14164.00
2018-08-17T08:19:32.216Z,14120.00
2018-08-17T08:21:25.082Z,14812.00
2018-08-17T08:22:25.023Z,14724.00
2018-08-17T08:24:17.866Z,10668.00
2018-08-17T08:25:18.456Z,15228.00
2018-08-17T08:26:17.822Z,13828.00
2018-08-17T08:27:17.806Z,14556.00
2018-08-17T08:28:17.794Z,15032.00
2018-08-17T08:29:17.765Z,14708.00
2018-08-17T08:30:17.754Z,13560.00
2018-08-17T08:31:17.735Z,13420.00
2018-08-17T08:32:17.725Z,12776.00
2018-08-17T08:33:17.701Z,11748.00
2018-08-17T08:34:17.692Z,14560.00
2018-08-17T08:35:17.666Z,12336.00
2018-08-17T08:36:17.651Z,10116.00
2018-08-17T08:37:17.698Z,10640.00
2018-08-17T08:38:17.625Z,9840.00
2018-08-17T08:39:17.604Z,10084.00
2018-08-17T08:40:17.586Z,13188.00
2018-08-17T08:41:17.580Z,11744.00
2018-08-17T08:42:17.567Z,12800.00
2018-08-17T08:43:17.540Z,13536.00
2018-08-17T08:44:17.519Z,13576.00
2018-08-17T08:45:17.505Z,13656.00
2018-08-17T08:46:17.486Z,13108.00
2018-08-17T08:47:17.487Z,12448.00
2018-08-17T08:48:17.457Z,9892.00
2018-08-17T08:49:17.453Z,11236.00
2018-08-17T08:50:17.425Z,9552.00
2018-08-17T08:51:17.416Z,8848.00
2018-08-17T08:52:17.391Z,8736.00
2018-08-17T08:53:17.372Z,9656.00
2018-08-17T08:54:17.361Z,8312.00
2018-08-17T08:55:17.341Z,9280.00
2018-08-17T08:56:17.323Z,8832.00
2018-08-17T08:57:17.306Z,9996.00
2018-08-17T08:58:17.291Z,9916.00
2018-08-17T08:59:17.279Z,9136.00
2018-08-17T09:00:17.267Z,8252.00
2018-08-17T09:01:17.238Z,12304.00
2018-08-17T09:02:17.223Z,8392.00
2018-08-17T09:03:17.203Z,8768.00
2018-08-17T09:04:17.198Z,12748.00
2018-08-17T09:05:17.171Z,12440.00
2018-08-17T09:06:17.159Z,12868.00
2018-08-17T09:07:17.133Z,12864.00
2018-08-17T09:08:17.211Z,12972.00
2018-08-17T09:09:17.100Z,12648.00
2018-08-17T09:10:17.089Z,12472.00
2018-08-17T09:11:17.078Z,12488.00
2018-08-17T09:12:17.054Z,12764.00
2018-08-17T09:13:17.030Z,12988.00
2018-08-17T09:14:17.016Z,13020.00
2018-08-17T09:15:17.001Z,13228.00
2018-08-17T09:16:16.980Z,13236.00
2018-08-17T09:17:16.965Z,13576.00
2018-08-17T09:18:16.947Z,13688.00
2018-08-17T09:19:16.936Z,14172.00
2018-08-17T09:20:16.965Z,14548.00
2018-08-17T09:21:16.907Z,14628.00
2018-08-17T09:22:16.880Z,12932.00
2018-08-17T09:23:16.863Z,13920.00
2018-08-17T09:24:16.841Z,14492.00
2018-08-17T09:25:16.838Z,14452.00
2018-08-17T09:26:16.809Z,15192.00
2018-08-17T09:27:16.793Z,14228.00
2018-08-17T09:29:16.825Z,12064.00
2018-08-17T09:30:16.815Z,12676.00
2018-08-17T09:31:16.730Z,14564.00
2018-08-17T09:32:16.726Z,12280.00
2018-08-17T09:33:16.696Z,11368.00
2018-08-17T09:34:16.677Z,10920.00
2018-08-17T09:35:16.661Z,10620.00
2018-08-17T09:36:16.644Z,10384.00
2018-08-17T09:37:16.624Z,10460.00
2018-08-17T09:38:16.615Z,10224.00
2018-08-17T09:39:16.595Z,10348.00
2018-08-17T09:40:16.578Z,10680.00
2018-08-17T09:41:16.556Z,11240.00
2018-08-17T09:42:16.546Z,11500.00
2018-08-17T09:43:16.531Z,12988.00
2018-08-17T09:44:16.515Z,11384.00
2018-08-17T09:45:16.502Z,11192.00
2018-08-17T09:46:16.480Z,11192.00
2018-08-17T09:47:16.465Z,11096.00
2018-08-17T09:48:16.448Z,11048.00
2018-08-17T09:49:16.434Z,11252.00
2018-08-17T09:50:16.418Z,10900.00
2018-08-17T09:51:16.433Z,10348.00
2018-08-17T09:52:16.387Z,10092.00
2018-08-17T09:53:16.370Z,9820.00
2018-08-17T09:54:16.356Z,9576.00
2018-08-17T09:55:16.339Z,9400.00
2018-08-17T09:56:16.323Z,9276.00
2018-08-17T09:57:16.308Z,9232.00
2018-08-17T09:58:16.289Z,9280.00
2018-08-17T09:59:16.273Z,9396.00
2018-08-17T10:00:16.261Z,9436.00
2018-08-17T10:01:16.239Z,9420.00
2018-08-17T10:02:16.232Z,9284.00
2018-08-17T10:03:16.208Z,9220.00
2018-08-17T10:04:16.264Z,9128.00
2018-08-17T10:05:16.176Z,9188.00
2018-08-17T10:06:16.158Z,9368.00
2018-08-17T10:07:16.147Z,9632.00
2018-08-17T10:08:16.127Z,9800.00
2018-08-17T10:09:16.143Z,9872.00
2018-08-17T10:10:16.093Z,9940.00
2018-08-17T10:11:16.079Z,10032.00
2018-08-17T10:12:16.056Z,10108.00
2018-08-17T10:13:16.058Z,10164.00
2018-08-17T10:14:16.027Z,10268.00
2018-08-17T10:15:16.010Z,10532.00
2018-08-17T10:16:15.987Z,10892.00
2018-08-17T10:17:15.986Z,11284.00
2018-08-17T10:18:15.959Z,11400.00
2018-08-17T10:19:15.942Z,11580.00
2018-08-17T10:20:15.933Z,11592.00
2018-08-17T10:21:16.127Z,11572.00
2018-08-17T10:22:15.893Z,11560.00
2018-08-17T10:23:15.878Z,11708.00
2018-08-17T10:24:15.858Z,14640.00
2018-08-17T10:25:15.854Z,11868.00
2018-08-17T10:26:15.824Z,11744.00
2018-08-17T10:27:15.911Z,11616.00
2018-08-17T10:28:15.793Z,15648.00
2018-08-17T10:29:15.771Z,14856.00
2018-08-17T10:30:15.759Z,14000.00
2018-08-17T10:31:15.742Z,16512.00
2018-08-17T10:32:15.729Z,17472.00
2018-08-17T10:33:15.702Z,18336.00
2018-08-17T10:34:15.693Z,13316.00
2018-08-17T10:35:15.674Z,18272.00
2018-08-17T10:36:15.656Z,18528.00
2018-08-17T10:37:15.645Z,18336.00
2018-08-17T10:38:15.623Z,16512.00
2018-08-17T10:39:15.610Z,16544.00
2018-08-17T10:40:15.594Z,19232.00
2018-08-17T10:41:15.577Z,19136.00
2018-08-17T10:42:15.562Z,15704.00
2018-08-17T10:43:15.547Z,17216.00
2018-08-17T10:44:15.527Z,15052.00
2018-08-17T10:45:15.519Z,18976.00
2018-08-17T10:46:15.503Z,18272.00
2018-08-17T10:47:15.484Z,13820.00
2018-08-17T10:48:15.468Z,14028.00
2018-08-17T10:49:15.514Z,12980.00
2018-08-17T10:50:15.445Z,12696.00
2018-08-17T10:51:15.421Z,12456.00
2018-08-17T10:52:15.412Z,12264.00
2018-08-17T10:53:15.389Z,12400.00
2018-08-17T10:54:15.375Z,12540.00
2018-08-17T10:55:15.366Z,12668.00
2018-08-17T10:56:15.347Z,12892.00
2018-08-17T10:57:15.332Z,13016.00
2018-08-17T10:58:15.318Z,13152.00
2018-08-17T10:59:15.297Z,13300.00
2018-08-17T11:00:15.277Z,13168.00
2018-08-17T11:01:15.271Z,13060.00
2018-08-17T11:02:15.253Z,13088.00
2018-08-17T11:03:15.235Z,15936.00
2018-08-17T11:04:15.220Z,13372.00
2018-08-17T11:05:15.205Z,14056.00
2018-08-17T11:06:15.187Z,14304.00
2018-08-17T11:07:15.170Z,13320.00
2018-08-17T11:08:15.155Z,12740.00
2018-08-17T11:09:15.135Z,12512.00
2018-08-17T11:10:15.125Z,12244.00
2018-08-17T11:11:15.139Z,12120.00
2018-08-17T11:12:15.095Z,11840.00
2018-08-17T11:13:15.098Z,11500.00
2018-08-17T11:14:15.075Z,11116.00
2018-08-17T11:15:15.045Z,10928.00
2018-08-17T11:16:15.028Z,10860.00
2018-08-17T11:17:15.017Z,10756.00
2018-08-17T11:18:14.993Z,10536.00
2018-08-17T11:19:14.989Z,10248.00
2018-08-17T11:20:14.964Z,9912.00
2018-08-17T11:21:14.952Z,9668.00
2018-08-17T11:22:14.932Z,9456.00
2018-08-17T11:23:14.916Z,9296.00
2018-08-17T11:24:14.901Z,9252.00
2018-08-17T11:25:14.885Z,9244.00
2018-08-17T11:26:14.870Z,9484.00
2018-08-17T11:27:14.848Z,14300.00
2018-08-17T11:28:14.836Z,15488.00
2018-08-17T11:29:14.828Z,14624.00
2018-08-17T11:30:14.801Z,11312.00
2018-08-17T11:31:14.781Z,10072.00
2018-08-17T11:32:14.772Z,9540.00
2018-08-17T11:33:14.752Z,9460.00
2018-08-17T11:34:15.553Z,9572.00
2018-08-17T11:35:14.718Z,9836.00
2018-08-17T11:36:14.707Z,10232.00
2018-08-17T11:37:14.686Z,10708.00
2018-08-17T11:38:14.672Z,11420.00
2018-08-17T11:39:14.657Z,11620.00
2018-08-17T11:40:14.638Z,11668.00
2018-08-17T11:41:14.622Z,12124.00
2018-08-17T11:42:14.605Z,14124.00
2018-08-17T11:43:14.590Z,18112.00
2018-08-17T11:44:14.568Z,15196.00
2018-08-17T11:45:14.563Z,17824.00
2018-08-17T11:46:14.539Z,15500.00
2018-08-17T11:47:14.529Z,14084.00
2018-08-17T11:48:14.508Z,14552.00
2018-08-17T11:49:14.494Z,16384.00
2018-08-17T11:50:14.473Z,13356.00
2018-08-17T11:51:14.456Z,12420.00
2018-08-17T11:52:14.444Z,12824.00
2018-08-17T11:53:14.456Z,14436.00
2018-08-17T11:54:14.412Z,15068.00
2018-08-17T11:55:14.396Z,11912.00
2018-08-17T11:56:14.376Z,11472.00
2018-08-17T11:57:15.003Z,10364.00
2018-08-17T11:58:14.350Z,10780.00
2018-08-17T11:59:14.338Z,10684.00
2018-08-17T12:00:14.313Z,12236.00
2018-08-17T12:01:14.456Z,10688.00
2018-08-17T12:02:14.280Z,10872.00
2018-08-17T12:03:14.266Z,10716.00
2018-08-17T12:04:14.250Z,10960.00
2018-08-17T12:05:14.234Z,15200.00
2018-08-17T12:06:14.213Z,10460.00
2018-08-17T12:07:14.207Z,9732.00
2018-08-17T12:08:14.240Z,9632.00
2018-08-17T12:09:14.173Z,14740.00
2018-08-17T12:10:14.154Z,15552.00
2018-08-17T12:11:14.140Z,13552.00
2018-08-17T12:12:14.122Z,15328.00
2018-08-17T12:13:14.106Z,14156.00
2018-08-17T12:14:14.090Z,15712.00
2018-08-17T12:15:14.071Z,15172.00
2018-08-17T12:16:14.063Z,12224.00
2018-08-17T12:17:14.042Z,12472.00
2018-08-17T12:18:14.033Z,15712.00
2018-08-17T12:19:14.011Z,15292.00
2018-08-17T12:20:13.995Z,14152.00
2018-08-17T12:21:13.980Z,14308.00
2018-08-17T12:22:13.964Z,14676.00
2018-08-17T12:23:13.947Z,15136.00
2018-08-17T12:24:13.959Z,15144.00
2018-08-17T12:25:13.922Z,15424.00
2018-08-17T12:26:13.898Z,14876.00
2018-08-17T12:27:13.890Z,14376.00
2018-08-17T12:28:13.859Z,10664.00
2018-08-17T12:29:13.854Z,11616.00
2018-08-17T12:30:13.837Z,10072.00
2018-08-17T12:31:13.820Z,14028.00
2018-08-17T12:32:13.866Z,12832.00
2018-08-17T12:33:13.786Z,13176.00
2018-08-17T12:34:13.773Z,14112.00
2018-08-17T12:35:13.759Z,13928.00
2018-08-17T12:36:13.747Z,13120.00
2018-08-17T12:37:13.728Z,12480.00
2018-08-17T12:38:13.715Z,13044.00
2018-08-17T12:39:13.696Z,12108.00
2018-08-17T12:40:13.724Z,12572.00
2018-08-17T12:41:13.670Z,12812.00
2018-08-17T12:42:13.647Z,12972.00
2018-08-17T12:43:13.634Z,13024.00
2018-08-17T12:44:13.619Z,12864.00
2018-08-17T12:45:13.600Z,12756.00
2018-08-17T12:46:13.579Z,12104.00
2018-08-17T12:47:13.570Z,11908.00
2018-08-17T12:48:13.554Z,12480.00
2018-08-17T12:49:13.538Z,12160.00
2018-08-17T12:50:13.527Z,7972.00
2018-08-17T12:51:13.506Z,7956.00
2018-08-17T12:52:13.548Z,10992.00
2018-08-17T12:53:13.474Z,12804.00
2018-08-17T12:54:13.476Z,11312.00
2018-08-17T12:55:13.438Z,11888.00
2018-08-17T12:56:13.428Z,12472.00
2018-08-17T12:57:13.408Z,11980.00
2018-08-17T12:58:13.405Z,8608.00
2018-08-17T12:59:13.377Z,8220.00
2018-08-17T13:00:13.359Z,8036.00
2018-08-17T13:01:13.350Z,7920.00
2018-08-17T13:02:13.327Z,7784.00
2018-08-17T13:03:13.314Z,7520.00
2018-08-17T13:04:13.293Z,7912.00
2018-08-17T13:05:13.275Z,12292.00
2018-08-17T13:06:13.263Z,12356.00
2018-08-17T13:07:13.245Z,12208.00
2018-08-17T13:08:13.223Z,12280.00
2018-08-17T13:09:13.215Z,11872.00
2018-08-17T13:10:13.196Z,12200.00
2018-08-17T13:11:13.182Z,11724.00
2018-08-17T13:12:13.161Z,10808.00
2018-08-17T13:13:13.141Z,10496.00
2018-08-17T13:14:13.151Z,11892.00
2018-08-17T13:15:13.112Z,11872.00
2018-08-17T13:16:13.098Z,12292.00
2018-08-17T13:17:13.095Z,12516.00
2018-08-17T13:18:13.062Z,11920.00
2018-08-17T13:19:13.046Z,12404.00
2018-08-17T13:20:13.029Z,12056.00
2018-08-17T13:21:13.006Z,12612.00
2018-08-17T13:22:13.001Z,12804.00
2018-08-17T13:23:13.127Z,12792.00
2018-08-17T13:24:12.977Z,11024.00
2018-08-17T13:25:12.941Z,9236.00
2018-08-17T13:26:12.937Z,12820.00
2018-08-17T13:27:12.918Z,12992.00
2018-08-17T13:28:12.895Z,12932.00
2018-08-17T13:29:12.884Z,13252.00
2018-08-17T13:30:12.864Z,9832.00
2018-08-17T13:31:12.843Z,8436.00
2018-08-17T13:32:12.828Z,8796.00
2018-08-17T13:33:12.813Z,8028.00
2018-08-17T13:34:12.795Z,8544.00
2018-08-17T13:35:12.788Z,12532.00
2018-08-17T13:36:12.849Z,12724.00
2018-08-17T13:37:12.745Z,12772.00
2018-08-17T13:38:12.728Z,12632.00
2018-08-17T13:39:12.719Z,12452.00
2018-08-17T13:40:12.694Z,9944.00
2018-08-17T13:41:12.680Z,10192.00
2018-08-17T13:42:12.719Z,9920.00
2018-08-17T13:43:13.479Z,12196.00
2018-08-17T13:44:12.626Z,11852.00
2018-08-17T13:45:12.612Z,11804.00
2018-08-17T13:46:12.596Z,7344.00
2018-08-17T13:47:12.577Z,7412.00
2018-08-17T13:48:12.560Z,7096.00
2018-08-17T13:49:12.543Z,7256.00
2018-08-17T13:50:12.530Z,7604.00
2018-08-17T13:51:12.508Z,7988.00
2018-08-17T13:52:12.499Z,8212.00
2018-08-17T13:53:12.476Z,12396.00
2018-08-17T13:54:12.467Z,8816.00
2018-08-17T13:55:12.437Z,9428.00
2018-08-17T13:56:12.433Z,8640.00
2018-08-17T13:57:12.408Z,8488.00
2018-08-17T13:58:12.390Z,8412.00
2018-08-17T13:59:12.382Z,8032.00
2018-08-17T14:00:12.365Z,7520.00
2018-08-17T14:01:12.369Z,6956.00
2018-08-17T14:02:12.342Z,6532.00
2018-08-17T14:03:12.308Z,9016.00
2018-08-17T14:04:12.282Z,6516.00
2018-08-17T14:05:12.271Z,6692.00
2018-08-17T14:06:12.257Z,7044.00
2018-08-17T14:07:12.238Z,7652.00
2018-08-17T14:08:12.267Z,10752.00
2018-08-17T14:09:12.208Z,10092.00
2018-08-17T14:10:12.304Z,10200.00
2018-08-17T14:11:12.174Z,8840.00
2018-08-17T14:12:12.148Z,8424.00
2018-08-17T14:13:12.136Z,8296.00
2018-08-17T14:14:12.116Z,8104.00
2018-08-17T14:15:12.100Z,8736.00
2018-08-17T14:16:12.098Z,7556.00
2018-08-17T14:17:12.066Z,7300.00
2018-08-17T14:18:12.049Z,7340.00
2018-08-17T14:19:12.032Z,7300.00
2018-08-17T14:20:12.012Z,7420.00
2018-08-17T14:21:11.995Z,7592.00
2018-08-17T14:22:12.031Z,7904.00
2018-08-17T14:23:11.961Z,8280.00
2018-08-17T14:24:11.944Z,9032.00
2018-08-17T14:25:11.925Z,8896.00
2018-08-17T14:26:11.907Z,8820.00
2018-08-17T14:27:11.891Z,8684.00
2018-08-17T14:28:11.873Z,8920.00
2018-08-17T14:29:11.860Z,8916.00
2018-08-17T14:30:11.836Z,12568.00
2018-08-17T14:31:11.820Z,12508.00
2018-08-17T14:32:11.801Z,12116.00
2018-08-17T14:33:11.787Z,11432.00
2018-08-17T14:34:11.815Z,7944.00
2018-08-17T14:35:11.801Z,7504.00
2018-08-17T14:36:11.732Z,7012.00
2018-08-17T14:37:11.709Z,6956.00
2018-08-17T14:38:11.718Z,7152.00
2018-08-17T14:39:11.678Z,7272.00
2018-08-17T14:40:11.692Z,8164.00
2018-08-17T14:41:11.639Z,9340.00
2018-08-17T14:42:11.634Z,10256.00
2018-08-17T14:43:11.611Z,10624.00
2018-08-17T14:44:11.602Z,10660.00
2018-08-17T14:45:11.566Z,10420.00
2018-08-17T14:46:11.562Z,10300.00
2018-08-17T14:47:11.533Z,10208.00
2018-08-17T14:48:11.520Z,10096.00
2018-08-17T14:49:11.501Z,9868.00
2018-08-17T14:50:11.483Z,9704.00
2018-08-17T14:51:11.465Z,9564.00
2018-08-17T14:52:11.445Z,9412.00
2018-08-17T14:53:11.433Z,9364.00
2018-08-17T14:54:11.412Z,9332.00
2018-08-17T14:55:11.391Z,9260.00
2018-08-17T14:56:11.374Z,9284.00
2018-08-17T14:57:11.362Z,9256.00
2018-08-17T14:58:11.343Z,9172.00
2018-08-17T14:59:11.324Z,9080.00
2018-08-17T15:00:11.310Z,8972.00
2018-08-17T15:01:11.353Z,8964.00
2018-08-17T15:02:11.265Z,9008.00
2018-08-17T15:03:11.247Z,9068.00
2018-08-17T15:04:11.227Z,9120.00
2018-08-17T15:05:11.215Z,9108.00
2018-08-17T15:06:12.078Z,9028.00
2018-08-17T15:07:11.173Z,8976.00
2018-08-17T15:08:11.155Z,8836.00
2018-08-17T15:09:11.142Z,8688.00
2018-08-17T15:10:11.122Z,8684.00
2018-08-17T15:11:11.101Z,8780.00
2018-08-17T15:12:11.081Z,8732.00
2018-08-17T15:13:11.117Z,8760.00
2018-08-17T15:14:11.053Z,8708.00
2018-08-17T15:15:11.025Z,8600.00
2018-08-17T15:16:11.010Z,8536.00
2018-08-17T15:17:10.993Z,8528.00
2018-08-17T15:18:12.650Z,8536.00
2018-08-17T15:19:10.955Z,8504.00
2018-08-17T15:20:10.936Z,8500.00
2018-08-17T15:21:10.919Z,8468.00
2018-08-17T15:22:10.899Z,8488.00
2018-08-17T15:23:10.881Z,8468.00
2018-08-17T15:24:10.891Z,8412.00
2018-08-17T15:25:10.848Z,8432.00
2018-08-17T15:26:10.829Z,8424.00
2018-08-17T15:27:10.803Z,8344.00
2018-08-17T15:28:10.791Z,8316.00
2018-08-17T15:29:10.773Z,8248.00
2018-08-17T15:30:10.758Z,8132.00
2018-08-17T15:31:10.732Z,8100.00
2018-08-17T15:32:10.718Z,8024.00
2018-08-17T15:33:10.700Z,7976.00
2018-08-17T15:34:10.679Z,7904.00
2018-08-17T15:35:10.658Z,7864.00
2018-08-17T15:36:10.639Z,7792.00
2018-08-17T15:37:10.624Z,7024.00
2018-08-17T15:38:10.605Z,6436.00
2018-08-17T15:39:10.578Z,6600.00
2018-08-17T15:40:10.566Z,7444.00
2018-08-17T15:41:10.556Z,7224.00
2018-08-17T15:42:11.063Z,7240.00
2018-08-17T15:43:10.513Z,7316.00
2018-08-17T15:44:10.489Z,7368.00
2018-08-17T15:45:10.480Z,7464.00
2018-08-17T15:46:10.489Z,7504.00
2018-08-17T15:47:10.436Z,7508.00
2018-08-17T15:48:10.416Z,7556.00
2018-08-17T15:49:10.406Z,7572.00
2018-08-17T15:50:10.380Z,7424.00
2018-08-17T15:51:10.370Z,7548.00
2018-08-17T15:52:10.390Z,7556.00
2018-08-17T15:53:10.333Z,7544.00
2018-08-17T15:54:10.298Z,7472.00
2018-08-17T15:55:10.284Z,7348.00
2018-08-17T15:56:10.263Z,7232.00
2018-08-17T15:57:10.243Z,7040.00
2018-08-17T15:58:10.241Z,7028.00
2018-08-17T15:59:10.207Z,6652.00
2018-08-17T16:00:10.196Z,6428.00
2018-08-17T16:01:18.207Z,7048.00
2018-08-17T16:03:03.307Z,6912.00
2018-08-17T16:04:03.267Z,6532.00
2018-08-17T16:05:56.907Z,6848.00
2018-08-17T16:06:56.860Z,6988.00
2018-08-17T16:08:50.184Z,7068.00
2018-08-17T16:09:50.158Z,7020.00
2018-08-17T16:11:43.812Z,6960.00
2018-08-17T16:12:43.770Z,6952.00
2018-08-17T16:14:37.083Z,6776.00
2018-08-17T16:15:37.063Z,6600.00
2018-08-17T16:17:30.202Z,6444.00
2018-08-17T16:18:30.161Z,6148.00
2018-08-17T16:20:23.804Z,6360.00
2018-08-17T16:21:23.758Z,6280.00
2018-08-17T16:23:16.611Z,5940.00
2018-08-17T16:24:16.563Z,5768.00
2018-08-17T16:26:09.694Z,5916.00
2018-08-17T16:27:09.654Z,6076.00
2018-08-17T16:29:03.322Z,6264.00
2018-08-17T16:30:03.262Z,6184.00
2018-08-17T16:31:56.438Z,5804.00
2018-08-17T16:32:56.356Z,5460.00
2018-08-17T16:34:49.999Z,5252.00
2018-08-17T16:35:49.953Z,5228.00
2018-08-17T16:37:43.591Z,5292.00
2018-08-17T16:38:43.557Z,5352.00
2018-08-17T16:40:36.899Z,5540.00
2018-08-17T16:41:36.852Z,5620.00
2018-08-17T16:43:29.683Z,5880.00
2018-08-17T16:44:29.662Z,6052.00
2018-08-17T16:46:23.325Z,6252.00
2018-08-17T16:47:23.246Z,6256.00
2018-08-17T16:49:16.095Z,6220.00
2018-08-17T16:50:16.047Z,6092.00
2018-08-17T16:52:08.916Z,5448.00
2018-08-17T16:53:08.898Z,5344.00
2018-08-17T16:55:01.990Z,5508.00
2018-08-17T16:56:01.965Z,5472.00
2018-08-17T16:57:56.608Z,5348.00
2018-08-17T16:58:56.583Z,5296.00
2018-08-17T17:00:49.922Z,5240.00
2018-08-17T17:01:49.871Z,5212.00
2018-08-17T17:03:43.299Z,5072.00
2018-08-17T17:04:42.862Z,4964.00
2018-08-17T17:06:36.408Z,4372.00
2018-08-17T17:07:36.265Z,4296.00
2018-08-17T17:09:29.903Z,4288.00
2018-08-17T17:10:29.865Z,4596.00
2018-08-17T17:12:23.468Z,4128.00
2018-08-17T17:13:23.448Z,4304.00
2018-08-17T17:15:16.791Z,3924.00
2018-08-17T17:16:16.744Z,3884.00
2018-08-17T17:18:09.571Z,3936.00
2018-08-17T17:19:09.547Z,4072.00
2018-08-17T17:21:03.198Z,3960.00
2018-08-17T17:22:03.146Z,3928.00
2018-08-17T17:23:56.296Z,3812.00
2018-08-17T17:24:57.064Z,3720.00
2018-08-17T17:26:49.146Z,3540.00
2018-08-17T17:27:49.108Z,3392.00
2018-08-17T17:29:41.891Z,3232.00
2018-08-17T17:30:41.851Z,3124.00
2018-08-17T17:31:41.827Z,3016.00
2018-08-17T17:32:41.810Z,2908.00
2018-08-17T17:33:41.787Z,2804.00
2018-08-17T17:34:41.830Z,2700.00
2018-08-17T17:35:41.746Z,2588.00
2018-08-17T17:36:41.725Z,2472.00
2018-08-17T17:37:41.713Z,2364.00
2018-08-17T17:38:41.678Z,2268.00
2018-08-17T17:39:41.680Z,2176.00
2018-08-17T17:40:41.644Z,2064.00
2018-08-17T17:41:41.622Z,1968.00
2018-08-17T17:42:41.601Z,1872.00
2018-08-17T17:43:41.580Z,1788.00
2018-08-17T17:44:41.608Z,1708.00
2018-08-17T17:45:41.532Z,1636.00
2018-08-17T17:46:41.521Z,1572.00
2018-08-17T17:47:41.494Z,1516.00
2018-08-17T17:48:41.472Z,1464.00
2018-08-17T17:49:41.446Z,1420.00
2018-08-17T17:50:41.428Z,1380.00
2018-08-17T17:51:41.408Z,1344.00
2018-08-17T17:52:41.394Z,1308.00
2018-08-17T17:53:41.370Z,1276.00
2018-08-17T17:54:41.339Z,1252.00
2018-08-17T17:55:41.318Z,1232.00
2018-08-17T17:56:41.294Z,1212.00
2018-08-17T17:57:41.274Z,1196.00
2018-08-17T17:58:41.251Z,1176.00
2018-08-17T17:59:41.227Z,1164.00
2018-08-17T18:00:41.209Z,1148.00
2018-08-17T18:01:41.189Z,1128.00
2018-08-17T18:02:41.160Z,1116.00
2018-08-17T18:03:41.141Z,1072.00
2018-08-17T18:04:41.132Z,1040.00
2018-08-17T18:05:41.095Z,1012.00
2018-08-17T18:06:41.072Z,976.00
2018-08-17T18:07:41.056Z,936.00
2018-08-17T18:08:41.030Z,896.00
2018-08-17T18:09:41.004Z,860.00
2018-08-17T18:10:40.983Z,832.00
2018-08-17T18:11:40.963Z,800.00
2018-08-17T18:12:40.944Z,768.00
2018-08-17T18:13:40.917Z,736.00
2018-08-17T18:14:40.905Z,700.00
2018-08-17T18:15:40.871Z,660.00
2018-08-17T18:16:40.850Z,624.00
2018-08-17T18:17:40.825Z,592.00
2018-08-17T18:18:40.803Z,568.00
2018-08-17T18:19:40.784Z,540.00
2018-08-17T18:20:40.759Z,508.00
2018-08-17T18:21:40.748Z,476.00
2018-08-17T18:22:40.714Z,444.00
2018-08-17T18:23:40.694Z,412.00
2018-08-17T18:24:40.665Z,380.00
2018-08-17T18:25:40.645Z,352.00
2018-08-17T18:26:40.632Z,324.00
2018-08-17T18:27:40.596Z,296.00
2018-08-17T18:28:40.577Z,272.00
2018-08-17T18:29:40.554Z,252.00
2018-08-17T18:30:40.584Z,232.00
2018-08-17T18:31:40.515Z,212.00
2018-08-17T18:32:40.485Z,192.00
2018-08-17T18:33:40.469Z,176.00
2018-08-17T18:34:40.437Z,160.00
2018-08-17T18:35:40.415Z,148.00
2018-08-17T18:36:40.395Z,136.00
2018-08-17T18:37:40.366Z,128.00
2018-08-17T18:38:40.341Z,112.00
2018-08-17T18:39:40.325Z,104.00
2018-08-17T18:40:40.306Z,92.00
2018-08-17T18:41:40.274Z,88.00
2018-08-17T18:42:40.250Z,76.00
2018-08-17T18:43:40.228Z,72.00
2018-08-17T18:44:40.203Z,60.00
2018-08-17T18:45:40.179Z,52.00
2018-08-17T18:46:40.184Z,48.00
2018-08-17T18:47:40.127Z,44.00
2018-08-17T18:48:40.110Z,40.00
2018-08-17T18:49:40.085Z,32.00
2018-08-17T18:50:40.063Z,32.00
2018-08-17T18:51:40.035Z,28.00
2018-08-17T18:52:40.068Z,24.00
2018-08-17T18:53:39.991Z,24.00
2018-08-17T18:54:39.961Z,16.00
2018-08-17T18:55:39.945Z,16.00
2018-08-17T18:56:39.921Z,12.00
2018-08-17T18:57:39.891Z,12.00
2018-08-17T18:58:39.872Z,12.00
2018-08-17T18:59:39.849Z,8.00
2018-08-17T19:00:39.832Z,8.00
2018-08-17T19:01:39.807Z,8.00
2018-08-17T19:02:39.776Z,4.00
2018-08-17T19:03:39.754Z,8.00
2018-08-17T19:04:39.734Z,4.00
2018-08-17T19:05:39.704Z,4.00
2018-08-17T19:06:39.689Z,4.00
2018-08-17T19:07:39.660Z,4.00
2018-08-17T19:08:39.634Z,0.00
2018-08-17T19:09:39.607Z,0.00
2018-08-17T19:10:39.584Z,4.00
2018-08-17T19:11:39.565Z,4.00
2018-08-17T19:12:39.537Z,4.00
2018-08-17T19:13:39.516Z,0.00
2018-08-17T19:14:39.504Z,0.00
2018-08-17T19:15:39.535Z,0.00
2018-08-17T19:16:39.442Z,0.00
2018-08-17T19:17:39.419Z,0.00
2018-08-17T19:18:39.392Z,0.00
2018-08-17T19:19:39.373Z,0.00
2018-08-17T19:20:39.342Z,0.00
2018-08-17T19:21:39.332Z,0.00
2018-08-17T19:22:39.302Z,0.00
2018-08-17T19:23:39.274Z,0.00
2018-08-17T19:24:39.256Z,0.00
2018-08-17T19:25:39.225Z,0.00
2018-08-17T19:26:39.200Z,0.00
2018-08-17T19:27:39.179Z,0.00
2018-08-17T19:28:39.153Z,0.00
2018-08-17T19:29:39.129Z,0.00
2018-08-17T19:30:39.101Z,0.00
2018-08-17T19:31:39.080Z,0.00
2018-08-17T19:32:39.056Z,0.00
2018-08-17T19:33:39.029Z,0.00
2018-08-17T19:34:39.021Z,0.00
2018-08-17T19:35:38.984Z,0.00
2018-08-17T19:36:38.965Z,0.00
2018-08-17T19:37:38.934Z,0.00
2018-08-17T19:38:38.911Z,0.00
2018-08-17T19:39:38.887Z,0.00
2018-08-17T19:40:38.864Z,0.00
2018-08-17T19:41:38.837Z,0.00
2018-08-17T19:42:38.816Z,0.00
2018-08-17T19:43:38.788Z,0.00
2018-08-17T19:44:38.766Z,0.00
2018-08-17T19:45:38.746Z,0.00
2018-08-17T19:46:38.711Z,0.00
2018-08-17T19:47:38.717Z,0.00
2018-08-17T19:48:38.673Z,0.00
2018-08-17T19:49:38.653Z,0.00
2018-08-17T19:50:38.625Z,0.00
2018-08-17T19:51:38.613Z,0.00
2018-08-17T19:52:38.573Z,0.00
2018-08-17T19:53:38.547Z,0.00
2018-08-17T19:54:38.524Z,0.00
2018-08-17T19:55:38.504Z,0.00
2018-08-17T19:56:38.470Z,0.00
2018-08-17T19:57:38.449Z,0.00
2018-08-17T19:58:38.426Z,0.00
2018-08-17T19:59:38.403Z,0.00
2018-08-17T20:00:38.388Z,0.00
2018-08-17T20:01:38.353Z,0.00
2018-08-17T20:02:38.336Z,0.00
2018-08-17T20:03:38.306Z,0.00
2018-08-17T20:04:38.280Z,0.00
2018-08-17T20:05:38.255Z,0.00
2018-08-17T20:06:38.231Z,0.00
2018-08-17T20:07:38.250Z,0.00
2018-08-17T20:08:38.184Z,0.00
2018-08-17T20:09:38.153Z,0.00
2018-08-17T20:10:38.135Z,0.00
2018-08-17T20:11:38.108Z,0.00
2018-08-17T20:12:38.080Z,0.00
2018-08-17T20:13:38.062Z,0.00
2018-08-17T20:14:38.036Z,0.00
2018-08-17T20:15:38.023Z,0.00
2018-08-17T20:16:37.991Z,0.00
2018-08-17T20:17:37.961Z,0.00
2018-08-17T20:18:37.937Z,0.00
2018-08-17T20:19:37.914Z,0.00
2018-08-17T20:20:37.889Z,0.00
2018-08-17T20:21:37.865Z,0.00
2018-08-17T20:22:37.837Z,0.00
2018-08-17T20:23:37.815Z,0.00
2018-08-17T20:24:37.793Z,0.00
2018-08-17T20:25:37.776Z,0.00
2018-08-17T20:26:38.092Z,0.00
2018-08-17T20:27:37.716Z,0.00
2018-08-17T20:28:37.693Z,0.00
2018-08-17T20:29:37.666Z,0.00
2018-08-17T20:30:37.643Z,0.00
2018-08-17T20:31:37.618Z,0.00
2018-08-17T20:32:37.595Z,0.00
2018-08-17T20:33:37.567Z,0.00
2018-08-17T20:34:37.543Z,0.00
2018-08-17T20:35:37.520Z,0.00
2018-08-17T20:36:37.514Z,0.00
2018-08-17T20:37:37.474Z,0.00
2018-08-17T20:38:37.472Z,0.00
2018-08-17T20:39:37.419Z,0.00
2018-08-17T20:40:37.396Z,0.00